createdAt,value
2018-11-06T00:00:17.629Z,24.00
2018-11-06T00:01:17.585Z,24.60
2018-11-06T00:02:17.568Z,24.20
2018-11-06T00:03:17.557Z,24.00
2018-11-06T00:04:17.550Z,24.90
2018-11-06T00:05:17.572Z,23.80
2018-11-06T00:06:17.517Z,24.00
2018-11-06T00:07:17.543Z,25.40
2018-11-06T00:08:17.498Z,25.00
2018-11-06T00:09:17.614Z,26.70
2018-11-06T00:10:17.475Z,25.30
2018-11-06T00:11:17.460Z,24.90
2018-11-06T00:12:17.489Z,26.80
2018-11-06T00:13:17.442Z,24.60
2018-11-06T00:14:17.531Z,27.10
2018-11-06T00:15:17.458Z,26.80
2018-11-06T00:16:17.408Z,26.40
2018-11-06T00:17:17.459Z,27.90
2018-11-06T00:18:17.408Z,27.00
2018-11-06T00:19:17.408Z,23.50
2018-11-06T00:20:17.364Z,25.10
2018-11-06T00:21:17.355Z,24.00
2018-11-06T00:22:17.383Z,28.00
2018-11-06T00:23:17.328Z,25.30
2018-11-06T00:24:17.325Z,25.20
2018-11-06T00:25:17.309Z,26.80
2018-11-06T00:26:17.299Z,27.20
2018-11-06T00:27:17.341Z,26.10
2018-11-06T00:28:17.281Z,25.30
2018-11-06T00:29:17.271Z,25.40
2018-11-06T00:30:17.257Z,25.40
2018-11-06T00:31:17.261Z,26.00
2018-11-06T00:32:17.260Z,26.10
2018-11-06T00:33:17.263Z,27.30
2018-11-06T00:34:17.315Z,25.50
2018-11-06T00:35:17.228Z,27.60
2018-11-06T00:36:17.192Z,26.40
2018-11-06T00:37:17.178Z,23.70
2018-11-06T00:38:17.170Z,26.10
2018-11-06T00:39:17.196Z,28.00
2018-11-06T00:40:17.149Z,26.50
2018-11-06T00:41:17.134Z,27.10
2018-11-06T00:42:17.132Z,27.80
2018-11-06T00:43:17.142Z,26.00
2018-11-06T00:44:17.105Z,27.10
2018-11-06T00:45:17.085Z,29.30
2018-11-06T00:46:17.085Z,24.30
2018-11-06T00:47:17.071Z,26.80
2018-11-06T00:48:17.087Z,25.40
2018-11-06T00:49:17.177Z,26.00
2018-11-06T00:50:17.030Z,27.30
2018-11-06T00:51:17.025Z,27.00
2018-11-06T00:52:17.009Z,28.50
2018-11-06T00:53:17.000Z,27.10
2018-11-06T00:54:17.020Z,29.60
2018-11-06T00:55:17.013Z,27.80
2018-11-06T00:56:17.014Z,29.00
2018-11-06T00:57:16.954Z,25.80
2018-11-06T00:58:16.955Z,25.60
2018-11-06T00:59:16.936Z,25.60
2018-11-06T01:00:16.927Z,26.80
2018-11-06T01:01:16.940Z,26.00
2018-11-06T01:02:16.901Z,25.80
2018-11-06T01:03:16.927Z,27.00
2018-11-06T01:04:16.880Z,24.10
2018-11-06T01:05:16.902Z,29.60
2018-11-06T01:06:16.892Z,27.30
2018-11-06T01:07:16.890Z,27.30
2018-11-06T01:08:16.832Z,27.30
2018-11-06T01:09:16.826Z,27.00
2018-11-06T01:10:16.811Z,28.50
2018-11-06T01:11:16.856Z,28.00
2018-11-06T01:12:16.821Z,29.60
2018-11-06T01:13:16.785Z,27.50
2018-11-06T01:14:16.770Z,26.90
2018-11-06T01:15:16.757Z,27.80
2018-11-06T01:16:16.769Z,29.50
2018-11-06T01:17:16.762Z,28.10
2018-11-06T01:18:16.751Z,26.20
2018-11-06T01:19:16.708Z,26.50
2018-11-06T01:20:16.739Z,29.10
2018-11-06T01:21:16.688Z,31.30
2018-11-06T01:22:16.677Z,30.60
2018-11-06T01:23:16.696Z,31.40
2018-11-06T01:24:16.656Z,29.70
2018-11-06T01:25:16.676Z,29.80
2018-11-06T01:26:16.646Z,29.60
2018-11-06T01:27:16.628Z,27.80
2018-11-06T01:28:16.608Z,27.90
2018-11-06T01:29:16.601Z,25.80
2018-11-06T01:30:16.624Z,25.80
2018-11-06T01:31:16.579Z,26.40
2018-11-06T01:32:16.569Z,24.10
2018-11-06T01:33:16.592Z,26.80
2018-11-06T01:34:16.579Z,27.10
2018-11-06T01:35:16.532Z,28.10
2018-11-06T01:36:16.532Z,27.50
2018-11-06T01:37:16.514Z,28.10
2018-11-06T01:38:16.552Z,28.60
2018-11-06T01:39:16.522Z,28.00
2018-11-06T01:40:16.510Z,26.70
2018-11-06T01:41:16.477Z,27.60
2018-11-06T01:42:16.473Z,29.30
2018-11-06T01:43:16.445Z,27.20
2018-11-06T01:44:16.481Z,27.50
2018-11-06T01:45:16.473Z,27.90
2018-11-06T01:46:16.412Z,28.00
2018-11-06T01:47:16.404Z,25.60
2018-11-06T01:48:16.399Z,27.50
2018-11-06T01:49:16.457Z,26.70
2018-11-06T01:50:16.378Z,26.10
2018-11-06T01:51:16.364Z,27.30
2018-11-06T01:52:16.352Z,27.90
2018-11-06T01:53:16.335Z,25.40
2018-11-06T01:54:16.364Z,25.40
2018-11-06T01:55:16.315Z,24.80
2018-11-06T01:56:16.306Z,26.00
2018-11-06T01:57:16.294Z,26.70
2018-11-06T01:58:16.281Z,24.20
2018-11-06T01:59:16.304Z,25.90
2018-11-06T02:00:16.297Z,25.90
2018-11-06T02:01:16.247Z,25.70
2018-11-06T02:02:16.235Z,27.20
2018-11-06T02:03:16.252Z,27.50
2018-11-06T02:04:16.234Z,27.80
2018-11-06T02:05:16.204Z,24.20
2018-11-06T02:06:16.215Z,25.70
2018-11-06T02:07:16.190Z,24.90
2018-11-06T02:08:16.195Z,27.40
2018-11-06T02:09:16.169Z,26.00
2018-11-06T02:10:16.148Z,24.10
2018-11-06T02:11:16.144Z,25.20
2018-11-06T02:12:16.154Z,24.90
2018-11-06T02:13:16.112Z,23.90
2018-11-06T02:14:16.110Z,27.60
2018-11-06T02:15:16.100Z,25.00
2018-11-06T02:16:16.082Z,26.70
2018-11-06T02:17:16.121Z,28.90
2018-11-06T02:18:16.061Z,26.00
2018-11-06T02:19:16.048Z,25.40
2018-11-06T02:20:16.036Z,30.50
2018-11-06T02:21:16.030Z,23.40
2018-11-06T02:22:16.106Z,25.30
2018-11-06T02:23:16.036Z,24.20
2018-11-06T02:24:15.992Z,27.10
2018-11-06T02:25:16.020Z,26.40
2018-11-06T02:26:16.012Z,26.40
2018-11-06T02:27:15.956Z,24.30
2018-11-06T02:28:15.950Z,24.50
2018-11-06T02:29:15.966Z,27.80
2018-11-06T02:30:15.935Z,28.30
2018-11-06T02:31:15.918Z,25.10
2018-11-06T02:32:15.923Z,25.30
2018-11-06T02:33:15.941Z,23.00
2018-11-06T02:34:15.895Z,26.20
2018-11-06T02:35:15.875Z,23.40
2018-11-06T02:36:15.863Z,25.60
2018-11-06T02:37:15.849Z,25.50
2018-11-06T02:38:15.862Z,23.00
2018-11-06T02:39:15.829Z,22.90
2018-11-06T02:40:15.828Z,24.10
2018-11-06T02:41:15.841Z,22.00
2018-11-06T02:42:15.793Z,24.30
2018-11-06T02:43:15.819Z,24.50
2018-11-06T02:44:15.771Z,24.30
2018-11-06T02:45:15.758Z,21.80
2018-11-06T02:46:15.847Z,23.60
2018-11-06T02:47:15.742Z,23.20
2018-11-06T02:48:15.760Z,25.30
2018-11-06T02:49:15.714Z,20.60
2018-11-06T02:50:15.743Z,22.60
2018-11-06T02:51:15.698Z,22.80
2018-11-06T02:52:15.688Z,23.00
2018-11-06T02:53:15.671Z,21.90
2018-11-06T02:54:15.690Z,23.50
2018-11-06T02:55:15.649Z,24.80
2018-11-06T02:56:15.658Z,22.60
2018-11-06T02:57:15.628Z,21.70
2018-11-06T02:58:15.617Z,22.30
2018-11-06T02:59:15.613Z,22.10
2018-11-06T03:00:15.590Z,22.90
2018-11-06T03:01:15.628Z,22.00
2018-11-06T03:02:15.576Z,21.20
2018-11-06T03:03:15.565Z,22.00
2018-11-06T03:04:15.578Z,21.40
2018-11-06T03:05:15.561Z,21.70
2018-11-06T03:06:15.564Z,22.30
2018-11-06T03:07:15.516Z,21.30
2018-11-06T03:08:15.509Z,21.00
2018-11-06T03:09:15.498Z,21.00
2018-11-06T03:10:15.577Z,23.10
2018-11-06T03:11:15.506Z,23.00
2018-11-06T03:12:15.460Z,21.60
2018-11-06T03:13:15.449Z,20.70
2018-11-06T03:14:15.471Z,23.20
2018-11-06T03:15:15.428Z,20.30
2018-11-06T03:16:15.448Z,20.30
2018-11-06T03:17:15.433Z,20.60
2018-11-06T03:18:15.458Z,20.80
2018-11-06T03:19:15.415Z,22.90
2018-11-06T03:20:15.375Z,21.70
2018-11-06T03:21:15.369Z,21.70
2018-11-06T03:22:15.362Z,22.60
2018-11-06T03:23:15.378Z,22.50
2018-11-06T03:24:15.334Z,22.70
2018-11-06T03:25:15.324Z,24.30
2018-11-06T03:26:15.311Z,22.70
2018-11-06T03:27:15.301Z,21.40
2018-11-06T03:28:15.322Z,21.60
2018-11-06T03:29:15.277Z,20.40
2018-11-06T03:30:15.274Z,19.80
2018-11-06T03:31:15.264Z,20.50
2018-11-06T03:32:15.253Z,21.30
2018-11-06T03:33:15.277Z,20.60
2018-11-06T03:34:15.228Z,19.10
2018-11-06T03:35:15.213Z,20.20
2018-11-06T03:36:15.202Z,22.20
2018-11-06T03:37:15.188Z,20.70
2018-11-06T03:38:15.226Z,22.30
2018-11-06T03:39:15.167Z,21.00
2018-11-06T03:40:15.156Z,20.90
2018-11-06T03:41:15.155Z,21.60
2018-11-06T03:42:15.167Z,21.30
2018-11-06T03:43:15.152Z,19.80
2018-11-06T03:44:15.150Z,21.20
2018-11-06T03:45:15.142Z,18.10
2018-11-06T03:46:15.091Z,21.40
2018-11-06T03:47:15.134Z,18.70
2018-11-06T03:48:15.067Z,20.50
2018-11-06T03:49:15.068Z,22.30
2018-11-06T03:50:15.090Z,19.80
2018-11-06T03:51:15.045Z,18.10
2018-11-06T03:52:15.036Z,19.40
2018-11-06T03:53:15.017Z,18.20
2018-11-06T03:54:15.034Z,20.30
2018-11-06T03:55:14.999Z,18.00
2018-11-06T03:56:15.045Z,18.50
2018-11-06T03:57:14.970Z,92.70
2018-11-06T03:58:15.047Z,70.80
2018-11-06T03:59:14.992Z,181.80
2018-11-06T04:00:14.938Z,44.70
2018-11-06T04:01:14.999Z,47.80
2018-11-06T04:02:14.931Z,40.20
2018-11-06T04:03:14.901Z,28.10
2018-11-06T04:04:14.900Z,20.60
2018-11-06T04:05:14.889Z,21.20
2018-11-06T04:06:14.906Z,21.00
2018-11-06T04:07:14.867Z,18.80
2018-11-06T04:08:14.876Z,20.20
2018-11-06T04:09:14.873Z,19.20
2018-11-06T04:10:14.833Z,20.10
2018-11-06T04:11:14.850Z,17.60
2018-11-06T04:12:15.418Z,18.00
2018-11-06T04:13:14.794Z,17.20
2018-11-06T04:14:15.418Z,18.10
2018-11-06T04:15:14.823Z,17.50
2018-11-06T04:16:14.758Z,20.30
2018-11-06T04:17:14.750Z,19.00
2018-11-06T04:18:14.739Z,17.80
2018-11-06T04:19:14.737Z,17.30
2018-11-06T04:20:14.751Z,18.40
2018-11-06T04:21:14.702Z,17.80
2018-11-06T04:22:15.421Z,17.90
2018-11-06T04:23:14.681Z,23.60
2018-11-06T04:24:14.668Z,20.80
2018-11-06T04:25:14.704Z,39.10
2018-11-06T04:26:14.644Z,93.80
2018-11-06T04:27:14.673Z,25.30
2018-11-06T04:28:14.627Z,18.40
2018-11-06T04:29:14.616Z,27.30
2018-11-06T04:30:14.605Z,20.90
2018-11-06T04:31:14.595Z,17.90
2018-11-06T04:32:14.612Z,17.80
2018-11-06T04:33:14.570Z,16.80
2018-11-06T04:34:14.556Z,20.20
2018-11-06T04:35:14.547Z,16.10
2018-11-06T04:36:14.533Z,19.20
2018-11-06T04:37:14.556Z,18.30
2018-11-06T04:38:14.658Z,16.70
2018-11-06T04:39:14.502Z,18.40
2018-11-06T04:40:14.493Z,17.90
2018-11-06T04:41:14.494Z,18.40
2018-11-06T04:42:14.493Z,17.00
2018-11-06T04:43:14.458Z,17.80
2018-11-06T04:44:14.444Z,18.40
2018-11-06T04:45:14.440Z,18.10
2018-11-06T04:46:14.480Z,17.60
2018-11-06T04:47:14.424Z,19.00
2018-11-06T04:48:14.407Z,18.30
2018-11-06T04:49:14.398Z,16.20
2018-11-06T04:50:14.408Z,19.00
2018-11-06T04:51:14.423Z,18.60
2018-11-06T04:52:14.358Z,20.60
2018-11-06T04:53:14.377Z,20.00
2018-11-06T04:54:14.334Z,17.10
2018-11-06T04:55:14.324Z,21.40
2018-11-06T04:56:14.310Z,21.40
2018-11-06T04:57:14.328Z,18.80
2018-11-06T04:58:14.334Z,19.90
2018-11-06T04:59:14.277Z,17.50
2018-11-06T05:00:14.268Z,19.90
2018-11-06T05:01:14.259Z,20.30
2018-11-06T05:02:14.348Z,19.80
2018-11-06T05:03:14.282Z,18.10
2018-11-06T05:04:14.224Z,19.00
2018-11-06T05:05:14.232Z,19.80
2018-11-06T05:06:14.207Z,19.20
2018-11-06T05:07:14.246Z,19.10
2018-11-06T05:08:14.214Z,18.90
2018-11-06T05:09:14.191Z,20.70
2018-11-06T05:10:14.165Z,19.00
2018-11-06T05:11:14.189Z,21.80
2018-11-06T05:12:14.134Z,17.80
2018-11-06T05:13:14.153Z,28.70
2018-11-06T05:14:14.174Z,29.00
2018-11-06T05:15:14.104Z,20.40
2018-11-06T05:16:14.093Z,20.20
2018-11-06T05:17:14.097Z,19.30
2018-11-06T05:18:14.069Z,20.60
2018-11-06T05:19:14.112Z,20.00
2018-11-06T05:20:14.049Z,21.20
2018-11-06T05:21:14.104Z,20.00
2018-11-06T05:22:14.034Z,20.20
2018-11-06T05:23:14.059Z,21.30
2018-11-06T05:24:14.048Z,20.00
2018-11-06T05:25:14.076Z,20.70
2018-11-06T05:26:13.992Z,20.60
2018-11-06T05:27:14.088Z,20.40
2018-11-06T05:28:13.971Z,18.70
2018-11-06T05:29:13.962Z,18.50
2018-11-06T05:30:13.988Z,20.80
2018-11-06T05:31:13.928Z,23.90
2018-11-06T05:32:13.921Z,20.70
2018-11-06T05:33:13.912Z,18.70
2018-11-06T05:34:13.941Z,17.80
2018-11-06T05:35:13.897Z,20.90
2018-11-06T05:36:13.873Z,19.70
2018-11-06T05:37:13.944Z,19.80
2018-11-06T05:38:13.864Z,19.40
2018-11-06T05:39:14.030Z,21.20
2018-11-06T05:40:13.836Z,19.30
2018-11-06T05:41:13.829Z,19.90
2018-11-06T05:42:13.805Z,18.10
2018-11-06T05:43:13.840Z,19.10
2018-11-06T05:44:13.786Z,17.30
2018-11-06T05:45:13.790Z,18.00
2018-11-06T05:46:13.810Z,18.10
2018-11-06T05:47:13.754Z,19.10
2018-11-06T05:48:13.778Z,19.60
2018-11-06T05:49:13.733Z,18.60
2018-11-06T05:50:13.755Z,19.60
2018-11-06T05:51:13.725Z,22.00
2018-11-06T05:52:13.703Z,19.60
2018-11-06T05:53:13.884Z,19.50
2018-11-06T05:54:13.679Z,19.20
2018-11-06T05:55:13.665Z,17.00
2018-11-06T05:56:13.655Z,18.20
2018-11-06T05:57:13.683Z,21.10
2018-11-06T05:58:13.632Z,21.60
2018-11-06T05:59:13.650Z,21.40
2018-11-06T06:00:13.610Z,20.80
2018-11-06T06:01:13.706Z,19.80
2018-11-06T06:02:13.601Z,21.80
2018-11-06T06:03:13.605Z,20.10
2018-11-06T06:04:13.603Z,20.80
2018-11-06T06:05:13.564Z,19.60
2018-11-06T06:06:13.571Z,21.40
2018-11-06T06:07:13.565Z,20.10
2018-11-06T06:08:13.530Z,20.70
2018-11-06T06:09:13.512Z,22.10
2018-11-06T06:10:13.503Z,22.20
2018-11-06T06:11:13.523Z,18.70
2018-11-06T06:12:13.517Z,20.20
2018-11-06T06:13:13.475Z,19.40
2018-11-06T06:14:13.472Z,19.30
2018-11-06T06:15:13.449Z,21.40
2018-11-06T06:16:13.443Z,20.20
2018-11-06T06:17:13.612Z,20.60
2018-11-06T06:18:13.413Z,20.50
2018-11-06T06:19:13.437Z,21.90
2018-11-06T06:20:13.398Z,18.90
2018-11-06T06:21:13.383Z,21.10
2018-11-06T06:22:13.370Z,21.60
2018-11-06T06:23:13.369Z,97.90
2018-11-06T06:24:13.382Z,35.30
2018-11-06T06:25:13.348Z,70.50
2018-11-06T06:26:13.361Z,93.60
2018-11-06T06:27:13.315Z,40.30
2018-11-06T06:28:13.322Z,23.70
2018-11-06T06:29:13.343Z,22.40
2018-11-06T06:30:13.303Z,20.50
2018-11-06T06:31:13.274Z,19.70
2018-11-06T06:32:13.261Z,18.40
2018-11-06T06:33:13.359Z,19.70
2018-11-06T06:34:13.245Z,21.00
2018-11-06T06:35:13.326Z,19.60
2018-11-06T06:36:13.233Z,21.00
2018-11-06T06:37:13.207Z,19.30
2018-11-06T06:38:13.242Z,20.10
2018-11-06T06:39:13.185Z,19.80
2018-11-06T06:40:13.264Z,24.20
2018-11-06T06:41:13.196Z,22.70
2018-11-06T06:42:13.155Z,22.70
2018-11-06T06:43:13.149Z,20.90
2018-11-06T06:44:13.128Z,25.70
2018-11-06T06:45:13.146Z,26.00
2018-11-06T06:46:13.162Z,26.50
2018-11-06T06:47:13.108Z,24.20
2018-11-06T06:48:13.091Z,25.90
2018-11-06T06:49:13.073Z,25.00
2018-11-06T06:50:13.091Z,22.10
2018-11-06T06:51:13.051Z,28.10
2018-11-06T06:52:13.041Z,23.20
2018-11-06T06:53:13.029Z,23.80
2018-11-06T06:54:13.100Z,19.70
2018-11-06T06:55:13.152Z,21.20
2018-11-06T06:56:12.990Z,27.60
2018-11-06T06:57:13.061Z,21.20
2018-11-06T06:58:12.973Z,22.90
2018-11-06T06:59:12.967Z,22.20
2018-11-06T07:00:12.999Z,24.20
2018-11-06T07:01:12.979Z,30.00
2018-11-06T07:02:12.929Z,23.70
2018-11-06T07:03:12.920Z,20.70
2018-11-06T07:04:12.936Z,23.80
2018-11-06T07:05:12.921Z,22.90
2018-11-06T07:06:12.885Z,22.90
2018-11-06T07:07:12.896Z,24.40
2018-11-06T07:08:12.907Z,25.50
2018-11-06T07:09:12.849Z,24.20
2018-11-06T07:10:12.850Z,25.50
2018-11-06T07:11:12.893Z,23.80
2018-11-06T07:12:12.852Z,23.70
2018-11-06T07:13:12.877Z,22.50
2018-11-06T07:14:12.801Z,28.80
2018-11-06T07:15:12.795Z,23.10
2018-11-06T07:16:12.808Z,21.90
2018-11-06T07:17:12.758Z,22.70
2018-11-06T07:18:12.761Z,24.00
2018-11-06T07:19:12.737Z,25.40
2018-11-06T07:20:12.728Z,20.60
2018-11-06T07:21:12.750Z,23.60
2018-11-06T07:22:12.710Z,23.70
2018-11-06T07:23:12.702Z,23.70
2018-11-06T07:24:12.683Z,25.10
2018-11-06T07:25:12.719Z,23.90
2018-11-06T07:26:12.664Z,25.20
2018-11-06T07:27:12.660Z,27.10
2018-11-06T07:28:12.652Z,23.60
2018-11-06T07:29:13.453Z,25.70
2018-11-06T07:30:12.652Z,24.00
2018-11-06T07:31:12.607Z,23.40
2018-11-06T07:32:12.601Z,21.80
2018-11-06T07:33:12.633Z,23.80
2018-11-06T07:34:12.574Z,22.80
2018-11-06T07:35:12.686Z,21.00
2018-11-06T07:36:12.563Z,21.10
2018-11-06T07:37:12.619Z,21.50
2018-11-06T07:38:12.570Z,23.30
2018-11-06T07:39:12.520Z,20.70
2018-11-06T07:40:12.521Z,22.90
2018-11-06T07:41:12.571Z,19.90
2018-11-06T07:42:12.487Z,22.60
2018-11-06T07:43:12.524Z,22.30
2018-11-06T07:44:12.486Z,24.80
2018-11-06T07:45:12.483Z,21.60
2018-11-06T07:46:12.467Z,22.30
2018-11-06T07:47:12.433Z,23.30
2018-11-06T07:48:12.451Z,23.50
2018-11-06T07:49:12.447Z,22.40
2018-11-06T07:50:12.410Z,20.60
2018-11-06T07:51:12.384Z,22.00
2018-11-06T07:52:12.374Z,25.50
2018-11-06T07:53:12.467Z,23.40
2018-11-06T07:54:12.355Z,22.80
2018-11-06T07:55:12.345Z,23.50
2018-11-06T07:56:12.445Z,26.10
2018-11-06T07:57:12.344Z,22.70
2018-11-06T07:58:12.356Z,22.00
2018-11-06T07:59:12.339Z,22.00
2018-11-06T08:00:12.290Z,23.50
2018-11-06T08:01:12.278Z,21.90
2018-11-06T08:02:12.260Z,25.30
2018-11-06T08:03:12.257Z,22.90
2018-11-06T08:04:12.300Z,23.20
2018-11-06T08:05:12.278Z,22.00
2018-11-06T08:06:12.296Z,24.20
2018-11-06T08:07:12.213Z,25.40
2018-11-06T08:08:12.207Z,24.60
2018-11-06T08:09:12.202Z,23.20
2018-11-06T08:10:12.223Z,26.00
2018-11-06T08:11:12.200Z,25.60
2018-11-06T08:12:12.156Z,25.30
2018-11-06T08:13:12.165Z,23.90
2018-11-06T08:14:12.138Z,25.80
2018-11-06T08:15:12.252Z,24.00
2018-11-06T08:16:12.148Z,22.40
2018-11-06T08:17:12.101Z,20.50
2018-11-06T08:18:12.117Z,24.30
2018-11-06T08:19:12.076Z,24.40
2018-11-06T08:20:12.066Z,23.30
2018-11-06T08:21:12.087Z,22.40
2018-11-06T08:22:12.057Z,23.70
2018-11-06T08:23:12.032Z,23.60
2018-11-06T08:24:12.045Z,22.60
2018-11-06T08:25:12.008Z,24.20
2018-11-06T08:26:12.004Z,23.40
2018-11-06T08:27:11.997Z,24.30
2018-11-06T08:28:12.017Z,24.30
2018-11-06T08:29:11.969Z,24.50
2018-11-06T08:30:12.029Z,20.70
2018-11-06T08:31:12.309Z,26.00
2018-11-06T08:32:12.323Z,23.20
2018-11-06T08:33:11.999Z,20.90
2018-11-06T08:34:11.976Z,22.20
2018-11-06T08:35:11.910Z,22.60
2018-11-06T08:36:11.887Z,22.10
2018-11-06T08:37:12.024Z,19.70
2018-11-06T08:38:11.887Z,20.90
2018-11-06T08:39:11.886Z,20.60
2018-11-06T08:40:11.846Z,19.10
2018-11-06T08:41:11.847Z,21.70
2018-11-06T08:42:11.899Z,18.60
2018-11-06T08:43:11.852Z,18.00
2018-11-06T08:44:11.802Z,19.20
2018-11-06T08:45:11.806Z,18.40
2018-11-06T08:46:11.799Z,17.00
2018-11-06T08:47:11.772Z,19.70
2018-11-06T08:48:11.794Z,15.70
2018-11-06T08:49:11.820Z,17.50
2018-11-06T08:50:11.764Z,17.70
2018-11-06T08:51:11.728Z,17.90
2018-11-06T08:52:11.742Z,17.10
2018-11-06T08:53:11.700Z,16.00
2018-11-06T08:54:11.731Z,14.80
2018-11-06T08:55:11.690Z,14.80
2018-11-06T08:56:11.670Z,16.00
2018-11-06T08:57:11.672Z,14.90
2018-11-06T08:58:11.648Z,15.10
2018-11-06T08:59:11.687Z,13.90
2018-11-06T09:00:11.626Z,15.40
2018-11-06T09:01:11.614Z,14.50
2018-11-06T09:02:11.634Z,15.00
2018-11-06T09:03:11.598Z,14.90
2018-11-06T09:04:11.620Z,13.60
2018-11-06T09:05:11.632Z,14.80
2018-11-06T09:06:11.560Z,12.80
2018-11-06T09:07:11.549Z,13.80
2018-11-06T09:08:11.550Z,14.20
2018-11-06T09:09:11.569Z,13.20
2018-11-06T09:10:11.510Z,13.10
2018-11-06T09:11:11.513Z,15.40
2018-11-06T09:12:11.490Z,14.00
2018-11-06T09:13:11.493Z,13.60
2018-11-06T09:14:11.503Z,13.50
2018-11-06T09:15:11.462Z,12.70
2018-11-06T09:16:11.449Z,12.50
2018-11-06T09:17:11.531Z,13.20
2018-11-06T09:18:11.457Z,13.00
2018-11-06T09:19:11.425Z,15.40
2018-11-06T09:20:11.407Z,14.50
2018-11-06T09:21:11.390Z,11.60
2018-11-06T09:22:11.420Z,12.40
2018-11-06T09:23:11.367Z,15.00
2018-11-06T09:24:11.383Z,14.90
2018-11-06T09:25:11.353Z,12.70
2018-11-06T09:26:11.348Z,12.60
2018-11-06T09:27:11.329Z,13.20
2018-11-06T09:28:11.312Z,11.60
2018-11-06T09:29:11.422Z,12.10
2018-11-06T09:30:11.290Z,14.10
2018-11-06T09:31:11.289Z,13.50
2018-11-06T09:32:11.285Z,12.20
2018-11-06T09:33:11.290Z,12.30
2018-11-06T09:34:11.296Z,12.60
2018-11-06T09:35:11.292Z,13.90
2018-11-06T09:36:11.227Z,13.90
2018-11-06T09:37:11.249Z,13.10
2018-11-06T09:38:11.207Z,11.60
2018-11-06T09:39:11.238Z,13.90
2018-11-06T09:40:11.184Z,11.90
2018-11-06T09:41:11.215Z,12.20
2018-11-06T09:42:11.162Z,12.40
2018-11-06T09:43:11.170Z,11.50
2018-11-06T09:44:11.168Z,13.10
2018-11-06T09:45:11.246Z,11.50
2018-11-06T09:46:11.118Z,13.40
2018-11-06T09:47:11.111Z,12.80
2018-11-06T09:48:11.139Z,14.00
2018-11-06T09:49:11.114Z,10.90
2018-11-06T09:50:11.067Z,12.30
2018-11-06T09:51:11.068Z,11.00
2018-11-06T09:52:11.057Z,11.10
2018-11-06T09:53:11.081Z,10.80
2018-11-06T09:54:11.021Z,10.10
2018-11-06T09:55:11.024Z,12.80
2018-11-06T09:56:11.037Z,10.10
2018-11-06T09:57:10.992Z,9.60
2018-11-06T09:58:10.978Z,10.10
2018-11-06T09:59:10.981Z,9.00
2018-11-06T10:00:11.048Z,10.00
2018-11-06T10:01:10.941Z,10.60
2018-11-06T10:02:10.945Z,12.10
2018-11-06T10:03:10.928Z,12.40
2018-11-06T10:04:10.942Z,11.60
2018-11-06T10:05:10.902Z,11.80
2018-11-06T10:06:11.034Z,12.10
2018-11-06T10:07:11.303Z,11.10
2018-11-06T10:08:10.897Z,12.60
2018-11-06T10:09:11.019Z,11.10
2018-11-06T10:10:10.854Z,10.40
2018-11-06T10:11:10.863Z,9.50
2018-11-06T10:12:10.878Z,10.30
2018-11-06T10:13:10.811Z,11.30
2018-11-06T10:14:10.803Z,14.80
2018-11-06T10:15:10.829Z,11.50
2018-11-06T10:16:10.779Z,12.10
2018-11-06T10:17:10.773Z,11.50
2018-11-06T10:18:10.763Z,10.60
2018-11-06T10:19:10.776Z,10.80
2018-11-06T10:20:10.733Z,10.10
2018-11-06T10:21:10.795Z,9.20
2018-11-06T10:22:10.750Z,10.20
2018-11-06T10:23:10.697Z,10.20
2018-11-06T10:24:10.694Z,15.30
2018-11-06T10:25:10.676Z,11.20
2018-11-06T10:26:10.682Z,9.10
2018-11-06T10:27:10.700Z,9.00
2018-11-06T10:28:10.758Z,9.60
2018-11-06T10:29:10.632Z,12.10
2018-11-06T10:30:10.623Z,9.30
2018-11-06T10:31:10.610Z,10.10
2018-11-06T10:32:10.634Z,10.80
2018-11-06T10:33:10.634Z,10.60
2018-11-06T10:34:10.580Z,7.30
2018-11-06T10:35:10.596Z,8.60
2018-11-06T10:36:10.555Z,7.70
2018-11-06T10:37:10.565Z,8.40
2018-11-06T10:38:10.675Z,9.90
2018-11-06T10:39:10.573Z,8.80
2018-11-06T10:40:10.505Z,8.30
2018-11-06T10:41:10.507Z,8.00
2018-11-06T10:42:10.486Z,9.20
2018-11-06T10:43:10.482Z,8.30
2018-11-06T10:44:10.550Z,8.00
2018-11-06T10:45:10.464Z,9.00
2018-11-06T10:46:10.452Z,8.40
2018-11-06T10:47:10.433Z,7.80
2018-11-06T10:48:10.460Z,7.20
2018-11-06T10:49:10.416Z,10.90
2018-11-06T10:50:10.405Z,8.80
2018-11-06T10:51:10.390Z,7.80
2018-11-06T10:52:10.407Z,10.40
2018-11-06T10:53:10.406Z,7.50
2018-11-06T10:54:10.398Z,9.70
2018-11-06T10:55:10.345Z,8.50
2018-11-06T10:56:10.349Z,8.30
2018-11-06T10:57:10.349Z,10.40
2018-11-06T10:58:10.399Z,8.80
2018-11-06T10:59:10.334Z,10.10
2018-11-06T11:00:10.345Z,8.40
2018-11-06T11:01:10.286Z,8.90
2018-11-06T11:02:10.304Z,8.50
2018-11-06T11:03:10.265Z,8.70
2018-11-06T11:04:10.286Z,7.80
2018-11-06T11:05:10.403Z,8.10
2018-11-06T11:06:10.221Z,7.60
2018-11-06T11:07:10.217Z,9.30
2018-11-06T11:08:10.208Z,8.70
2018-11-06T11:09:10.191Z,7.20
2018-11-06T11:10:10.215Z,7.60
2018-11-06T11:11:10.171Z,8.20
2018-11-06T11:12:10.160Z,6.90
2018-11-06T11:13:10.151Z,6.60
2018-11-06T11:14:10.177Z,8.80
2018-11-06T11:15:10.122Z,7.50
2018-11-06T11:16:10.115Z,8.40
2018-11-06T11:17:10.140Z,6.50
2018-11-06T11:18:10.096Z,6.70
2018-11-06T11:19:10.083Z,8.70
2018-11-06T11:20:10.128Z,61.80
2018-11-06T11:21:10.075Z,145.60
2018-11-06T11:22:10.097Z,78.10
2018-11-06T11:23:10.036Z,30.60
2018-11-06T11:24:10.042Z,10.40
2018-11-06T11:25:10.013Z,9.90
2018-11-06T11:26:10.133Z,10.00
2018-11-06T11:27:09.993Z,8.90
2018-11-06T11:28:10.002Z,7.50
2018-11-06T11:29:09.966Z,9.30
2018-11-06T11:30:09.965Z,7.80
2018-11-06T11:31:09.980Z,6.30
2018-11-06T11:32:09.935Z,7.80
2018-11-06T11:33:09.968Z,6.00
2018-11-06T11:34:09.912Z,8.10
2018-11-06T11:35:09.959Z,8.80
2018-11-06T11:36:09.899Z,7.90
2018-11-06T11:37:09.883Z,5.40
2018-11-06T11:38:09.876Z,7.10
2018-11-06T11:39:09.858Z,6.30
2018-11-06T11:40:09.888Z,6.50
2018-11-06T11:41:09.835Z,7.10
2018-11-06T11:42:09.826Z,6.30
2018-11-06T11:43:09.816Z,6.80
2018-11-06T11:44:09.809Z,6.00
2018-11-06T11:45:09.867Z,6.40
2018-11-06T11:46:09.780Z,8.00
2018-11-06T11:47:09.768Z,5.30
2018-11-06T11:48:09.841Z,5.50
2018-11-06T11:49:09.746Z,6.70
2018-11-06T11:50:09.766Z,6.20
2018-11-06T11:51:09.727Z,6.20
2018-11-06T11:52:09.761Z,7.30
2018-11-06T11:53:09.706Z,6.60
2018-11-06T11:54:09.694Z,5.40
2018-11-06T11:55:09.678Z,6.50
2018-11-06T11:56:09.673Z,5.80
2018-11-06T11:57:09.701Z,7.50
2018-11-06T11:58:09.726Z,6.00
2018-11-06T11:59:09.639Z,5.70
2018-11-06T12:00:09.736Z,6.90
2018-11-06T12:01:09.614Z,6.20
2018-11-06T12:02:09.669Z,6.30
2018-11-06T12:03:09.614Z,5.50
2018-11-06T12:04:09.628Z,7.30
2018-11-06T12:05:09.577Z,5.70
2018-11-06T12:06:09.556Z,5.50
2018-11-06T12:07:09.555Z,6.90
2018-11-06T12:08:09.534Z,6.40
2018-11-06T12:09:09.555Z,5.60
2018-11-06T12:10:09.513Z,7.20
2018-11-06T12:11:09.507Z,5.20
2018-11-06T12:12:09.505Z,5.30
2018-11-06T12:13:09.507Z,6.70
2018-11-06T12:14:09.480Z,5.00
2018-11-06T12:15:09.459Z,5.70
2018-11-06T12:16:09.447Z,6.70
2018-11-06T12:17:09.437Z,6.30
2018-11-06T12:18:09.499Z,4.60
2018-11-06T12:19:09.417Z,6.40
2018-11-06T12:20:09.406Z,5.80
2018-11-06T12:21:09.393Z,6.40
2018-11-06T12:22:09.387Z,6.40
2018-11-06T12:23:09.442Z,6.50
2018-11-06T12:24:09.434Z,7.00
2018-11-06T12:25:09.523Z,5.50
2018-11-06T12:26:09.375Z,7.00
2018-11-06T12:27:09.322Z,6.30
2018-11-06T12:28:09.415Z,6.50
2018-11-06T12:29:09.306Z,7.10
2018-11-06T12:30:09.293Z,5.80
2018-11-06T12:31:09.333Z,6.30
2018-11-06T12:32:09.278Z,6.90
2018-11-06T12:33:09.262Z,5.70
2018-11-06T12:34:09.251Z,6.00
2018-11-06T12:35:09.267Z,5.20
2018-11-06T12:36:09.229Z,7.10
2018-11-06T12:37:09.316Z,6.80
2018-11-06T12:38:09.205Z,6.10
2018-11-06T12:39:09.195Z,5.20
2018-11-06T12:40:09.210Z,5.70
2018-11-06T12:41:09.203Z,5.90
2018-11-06T12:42:09.212Z,5.40
2018-11-06T12:43:09.213Z,5.10
2018-11-06T12:44:09.202Z,6.00
2018-11-06T12:45:09.170Z,5.80
2018-11-06T12:46:09.153Z,5.70
2018-11-06T12:47:09.121Z,6.50
2018-11-06T12:48:09.102Z,5.90
2018-11-06T12:49:09.080Z,4.80
2018-11-06T12:50:09.115Z,6.30
2018-11-06T12:51:09.093Z,6.40
2018-11-06T12:52:09.052Z,8.00
2018-11-06T12:53:09.089Z,6.70
2018-11-06T12:54:09.042Z,5.70
2018-11-06T12:55:09.023Z,5.90
2018-11-06T12:56:09.084Z,5.90
2018-11-06T12:57:09.013Z,4.50